Time;durP1;ratioP1;P1;durP2;ratioP2;P2;SDS_P1;SDS_P2;PMS_P1;PMS_P2;Temp;Humidity;BMP_temperature;BMP_pressure;BME280_temperature;BME280_humidity;BME280_pressure;Samples;Min_cycle;Max_cycle;Signal;HPM_P1;HPM_P2
2022/01/02 00:01:00;;;;;;;4.80;4.30;;;-4.70;83.10;-5.40;97606.00;;;;4937987;28;87017;-59
2022/01/02 00:03:49;;;;;;;4.45;4.03;;;-4.80;83.00;-5.50;97635.00;;;;4938552;28;88547;-58
2022/01/02 00:06:39;;;;;;;4.53;3.70;;;-4.80;82.50;-5.50;97634.00;;;;4938535;28;87762;-61
2022/01/02 00:09:37;;;;;;;4.20;3.80;;;-4.80;80.60;-5.50;97634.00;;;;4924827;28;87210;-58
2022/01/02 00:12:24;;;;;;;4.65;3.83;;;-4.70;80.90;-5.40;97623.00;;;;4921761;28;87013;-57
2022/01/02 00:15:11;;;;;;;4.22;3.60;;;-4.70;80.50;-5.50;97621.00;;;;4923895;28;87091;-58
2022/01/02 00:18:06;;;;;;;4.35;3.95;;;-4.70;79.40;-5.40;97648.00;;;;4924041;28;88291;-58
2022/01/02 00:20:53;;;;;;;3.65;3.20;;;-4.70;79.20;-5.40;97646.00;;;;4937699;28;88327;-58
2022/01/02 00:24:21;;;;;;;4.65;3.38;;;-4.70;75.70;-5.40;97630.00;;;;4938283;28;87500;-58
2022/01/02 00:26:49;;;;;;;4.47;3.13;;;-4.70;75.90;-5.50;97647.00;;;;4937580;28;87803;-59
2022/01/02 00:29:38;;;;;;;3.55;2.78;;;-4.80;76.30;-5.50;97618.00;;;;4934821;28;87708;-58
2022/01/02 00:32:24;;;;;;;3.65;2.80;;;-4.80;76.20;-5.60;97623.00;;;;4938629;28;87360;-59
2022/01/02 00:35:09;;;;;;;3.60;2.70;;;-4.90;76.70;-5.60;97623.00;;;;4934874;28;88005;-59
2022/01/02 00:37:53;;;;;;;2.42;2.15;;;-4.90;75.60;-5.60;97642.00;;;;4938563;28;87768;-61
2022/01/02 00:40:45;;;;;;;3.63;2.58;;;-4.90;75.40;-5.60;97638.00;;;;4934611;28;87013;-60
2022/01/02 00:43:47;;;;;;;3.10;2.55;;;-4.90;75.60;-5.60;97659.00;;;;4924119;28;87439;-60
2022/01/02 00:46:34;;;;;;;4.07;3.00;;;-4.90;76.20;-5.70;97648.00;;;;4926673;28;87036;-60
2022/01/02 00:49:25;;;;;;;3.70;3.05;;;-5.00;77.60;-5.70;97650.00;;;;4936833;28;88453;-60
2022/01/02 00:52:17;;;;;;;3.53;2.88;;;-4.90;77.90;-5.70;97664.00;;;;4938253;28;89198;-60
2022/01/02 00:55:05;;;;;;;3.33;2.97;;;-5.00;79.10;-5.70;97683.00;;;;4938156;28;87641;-60
2022/01/02 00:58:05;;;;;;;4.57;3.58;;;-5.00;79.70;-5.70;97678.00;;;;4924206;28;87610;-60
2022/01/02 01:00:51;;;;;;;4.22;3.30;;;-5.00;81.00;-5.80;97661.00;;;;4937852;28;87779;-60
2022/01/02 01:03:41;;;;;;;3.90;3.38;;;-5.10;81.30;-5.90;97647.00;;;;4924260;28;87111;-60
2022/01/02 01:06:32;;;;;;;4.43;3.65;;;-5.10;81.70;-5.90;97662.00;;;;4940300;28;87380;-61
2022/01/02 01:09:20;;;;;;;3.80;3.20;;;-5.10;82.30;-5.90;97669.00;;;;4941864;28;87277;-63
2022/01/02 01:12:06;;;;;;;3.75;3.35;;;-5.20;82.00;-6.00;97672.00;;;;4941486;28;88531;-63
2022/01/02 01:14:51;;;;;;;4.43;4.00;;;-5.20;81.70;-6.00;97674.00;;;;4941333;28;88036;-63
2022/01/02 01:17:38;;;;;;;16.92;3.90;;;-5.30;83.00;-6.00;97675.00;;;;4940894;28;88398;-59
2022/01/02 01:20:27;;;;;;;3.85;3.45;;;-5.30;83.00;-6.10;97674.00;;;;4924214;28;87097;-59
2022/01/02 01:23:17;;;;;;;3.55;3.22;;;-5.40;81.60;-6.10;97686.00;;;;4941059;28;87235;-59
2022/01/02 01:26:07;;;;;;;3.67;3.13;;;-5.30;80.60;-6.10;97674.00;;;;4923472;28;87138;-59
2022/01/02 01:28:52;;;;;;;3.20;2.90;;;-5.40;79.40;-6.20;97681.00;;;;4941461;28;87926;-60
2022/01/02 01:31:36;;;;;;;4.60;3.15;;;-5.40;79.60;-6.20;97681.00;;;;4927095;28;87441;-60
2022/01/02 01:34:21;;;;;;;3.90;3.30;;;-5.50;79.80;-6.30;97694.00;;;;4930090;28;87809;-60
2022/01/02 01:37:07;;;;;;;4.28;3.58;;;-5.50;80.20;-6.30;97712.00;;;;4940958;28;86959;-60
2022/01/02 01:39:55;;;;;;;3.22;2.92;;;-5.50;80.70;-6.30;97688.00;;;;4937491;28;87622;-60
2022/01/02 01:42:44;;;;;;;3.60;3.30;;;-5.60;81.70;-6.40;97675.00;;;;4940819;28;88075;-61
2022/01/02 01:45:30;;;;;;;4.15;3.72;;;-5.60;81.80;-6.40;97701.00;;;;4922334;28;89512;-61
2022/01/02 01:48:15;;;;;;;3.63;3.33;;;-5.70;81.80;-6.50;97722.00;;;;4923090;28;89154;-60
2022/01/02 01:51:00;;;;;;;3.50;3.20;;;-5.70;81.70;-6.50;97695.00;;;;4923382;28;88073;-60
2022/01/02 01:53:45;;;;;;;3.97;3.42;;;-5.70;81.60;-6.50;97678.00;;;;4937164;28;87194;-61
2022/01/02 01:56:31;;;;;;;3.30;2.90;;;-5.80;81.80;-6.50;97678.00;;;;4923098;28;87263;-61
2022/01/02 01:59:16;;;;;;;3.67;3.15;;;-5.80;80.70;-6.50;97683.00;;;;4930627;28;87550;-61
2022/01/02 02:02:03;;;;;;;3.47;3.17;;;-5.80;81.90;-6.50;97689.00;;;;4929969;28;87411;-61
2022/01/02 02:04:48;;;;;;;4.22;2.83;;;-5.70;81.20;-6.60;97693.00;;;;4923611;28;86307;-61
2022/01/02 02:07:41;;;;;;;3.08;2.78;;;-5.80;80.80;-6.60;97698.00;;;;4923378;28;87718;-62
2022/01/02 02:10:40;;;;;;;4.60;3.63;;;-5.80;80.90;-6.60;97689.00;;;;4929890;28;87056;-63
2022/01/02 02:13:27;;;;;;;3.93;3.33;;;-5.80;81.10;-6.60;97686.00;;;;4922368;28;89200;-62
2022/01/02 02:16:15;;;;;;;3.42;2.88;;;-5.80;81.20;-6.60;97709.00;;;;4922599;28;87740;-63
2022/01/02 02:19:01;;;;;;;3.22;2.92;;;-5.80;81.40;-6.60;97717.00;;;;4940126;28;88225;-63
2022/01/02 02:21:46;;;;;;;3.35;3.05;;;-5.80;81.70;-6.60;97697.00;;;;4923334;28;87062;-61
2022/01/02 02:24:30;;;;;;;3.83;3.22;;;-5.80;82.50;-6.60;97690.00;;;;4937592;28;87107;-62
2022/01/02 02:27:21;;;;;;;4.15;3.50;;;-5.80;82.50;-6.60;97718.00;;;;4922993;28;87122;-61
2022/01/02 02:30:07;;;;;;;3.70;3.28;;;-5.80;82.50;-6.60;97718.00;;;;4931785;28;87697;-60
2022/01/02 02:32:55;;;;;;;4.97;3.28;;;-5.80;82.50;-6.60;97705.00;;;;4921030;28;86986;-63
2022/01/02 02:35:44;;;;;;;4.25;3.42;;;-5.80;82.70;-6.60;97697.00;;;;4916854;28;87381;-62
2022/01/02 02:38:29;;;;;;;4.70;3.50;;;-5.80;83.40;-6.50;97732.00;;;;4923259;28;87708;-63
2022/01/02 02:41:18;;;;;;;4.53;3.70;;;-5.80;83.80;-6.60;97712.00;;;;4916067;28;89177;-61
2022/01/02 02:44:09;;;;;;;4.40;3.70;;;-5.80;84.20;-6.60;97732.00;;;;4929786;28;88037;-62
2022/01/02 02:49:58;;;;;;;5.18;3.33;;;-5.90;84.50;-6.70;97757.00;;;;4922777;28;87043;-59
2022/01/02 02:52:46;;;;;;;3.47;3.10;;;-5.90;84.80;-6.70;97746.00;;;;4920999;28;87441;-59
2022/01/02 02:55:42;;;;;;;4.35;3.28;;;-5.90;84.90;-6.70;97741.00;;;;4930459;28;87601;-59
2022/01/02 02:58:49;;;;;;;3.78;3.15;;;-5.90;84.70;-6.70;97755.00;;;;4917205;28;87325;-63
2022/01/02 03:01:33;;;;;;;4.57;3.22;;;-5.90;84.30;-6.70;97762.00;;;;4916846;28;87403;-59
2022/01/02 03:04:20;;;;;;;4.13;3.30;;;-5.90;84.20;-6.70;97766.00;;;;4917436;28;87688;-59
2022/01/02 03:07:05;;;;;;;7.90;3.40;;;-5.90;85.10;-6.80;97761.00;;;;4920567;28;87574;-60
2022/01/02 03:09:51;;;;;;;4.57;3.60;;;-6.00;86.60;-6.80;97775.00;;;;4916119;28;88977;-59
2022/01/02 03:12:38;;;;;;;4.88;3.38;;;-6.00;86.30;-6.80;97757.00;;;;4930700;28;87853;-61
2022/01/02 03:15:23;;;;;;;5.93;3.78;;;-6.00;85.80;-6.80;97777.00;;;;4929628;28;88090;-61
2022/01/02 03:18:08;;;;;;;6.38;3.60;;;-6.00;85.70;-6.80;97777.00;;;;4915917;28;87431;-61
2022/01/02 03:20:52;;;;;;;5.03;3.38;;;-6.10;85.70;-6.80;97799.00;;;;4923132;28;87449;-61
2022/01/02 03:23:38;;;;;;;5.07;3.30;;;-6.10;85.30;-6.90;97791.00;;;;4929951;28;87917;-61
2022/01/02 03:26:23;;;;;;;4.97;3.28;;;-6.10;84.60;-6.90;97804.00;;;;4919863;28;88061;-61
2022/01/02 03:29:08;;;;;;;6.03;3.78;;;-6.10;84.70;-6.90;97800.00;;;;4916261;28;87461;-60
2022/01/02 03:31:53;;;;;;;4.35;3.00;;;-6.10;84.90;-6.90;97819.00;;;;4929065;28;88081;-60
2022/01/02 03:34:39;;;;;;;3.92;3.22;;;-6.10;84.30;-6.90;97805.00;;;;4935348;28;87339;-57
2022/01/02 03:37:28;;;;;;;4.18;3.05;;;-6.10;84.20;-6.90;97786.00;;;;4927762;28;88230;-58
2022/01/02 03:40:13;;;;;;;9.48;3.10;;;-6.10;83.80;-6.90;97810.00;;;;4935259;28;88163;-57
2022/01/02 03:42:58;;;;;;;5.47;2.88;;;-6.10;83.50;-7.00;97808.00;;;;4935484;28;87807;-60
2022/01/02 03:45:43;;;;;;;4.85;3.15;;;-6.20;82.10;-7.00;97814.00;;;;4939150;28;86977;-58
2022/01/02 03:48:30;;;;;;;4.00;2.92;;;-6.20;82.80;-7.00;97808.00;;;;4927496;28;87716;-60
2022/01/02 03:51:16;;;;;;;4.13;2.95;;;-6.20;82.60;-7.00;97827.00;;;;4928339;28;87915;-60
2022/01/02 03:54:00;;;;;;;4.50;3.10;;;-6.20;82.90;-7.00;97823.00;;;;4938718;28;88004;-61
2022/01/02 03:56:47;;;;;;;3.92;2.70;;;-6.30;82.60;-7.10;97819.00;;;;4928367;28;87327;-60
2022/01/02 03:59:31;;;;;;;14.98;3.00;;;-6.30;82.50;-7.10;97826.00;;;;4934915;28;88157;-60
2022/01/02 04:02:16;;;;;;;3.67;2.63;;;-6.30;82.50;-7.10;97822.00;;;;4921887;28;88028;-58
2022/01/02 04:05:01;;;;;;;3.72;2.30;;;-6.30;81.90;-7.10;97819.00;;;;4934648;28;88097;-61
2022/01/02 04:07:46;;;;;;;4.43;2.88;;;-6.30;80.70;-7.20;97824.00;;;;4929083;28;87282;-61
2022/01/02 04:10:31;;;;;;;4.85;2.65;;;-6.40;80.80;-7.20;97841.00;;;;4921806;28;87296;-61
2022/01/02 04:13:16;;;;;;;4.57;2.80;;;-6.30;81.10;-7.20;97828.00;;;;4939084;28;88067;-61
2022/01/02 04:16:00;;;;;;;4.95;2.80;;;-6.40;80.40;-7.20;97830.00;;;;4938456;28;87964;-61
2022/01/02 04:18:46;;;;;;;4.20;2.30;;;-6.40;80.60;-7.20;97853.00;;;;4935577;28;87375;-61
2022/01/02 04:21:32;;;;;;;4.30;2.45;;;-6.40;80.50;-7.20;97838.00;;;;4938173;28;87179;-61
2022/01/02 04:24:18;;;;;;;4.07;2.80;;;-6.40;80.10;-7.20;97836.00;;;;4921524;28;86971;-61
2022/01/02 04:27:03;;;;;;;4.75;2.55;;;-6.40;79.90;-7.20;97840.00;;;;4921863;28;87400;-61
2022/01/02 04:29:48;;;;;;;3.58;2.45;;;-6.40;79.90;-7.30;97854.00;;;;4937751;28;87091;-61
2022/01/02 04:32:33;;;;;;;6.78;3.03;;;-6.50;79.50;-7.30;97882.00;;;;4933296;28;88760;-63
2022/01/02 04:35:17;;;;;;;4.85;2.53;;;-6.50;79.70;-7.30;97855.00;;;;4934721;28;87932;-63
2022/01/02 04:38:03;;;;;;;5.63;2.40;;;-6.40;79.20;-7.30;97865.00;;;;4928311;28;87053;-63
2022/01/02 04:40:48;;;;;;;5.15;2.70;;;-6.50;78.20;-7.30;97874.00;;;;4937526;28;87933;-62
2022/01/02 04:43:34;;;;;;;4.43;2.42;;;-6.50;78.30;-7.30;97852.00;;;;4933951;28;88006;-63
2022/01/02 04:46:19;;;;;;;3.80;2.28;;;-6.50;78.60;-7.20;97849.00;;;;4938230;28;87207;-62
2022/01/02 04:49:06;;;;;;;4.90;2.50;;;-6.40;79.10;-7.30;97855.00;;;;4933703;28;88580;-63
2022/01/02 04:51:53;;;;;;;10.77;2.72;;;-6.50;79.40;-7.30;97852.00;;;;4938021;28;87527;-63
2022/01/02 04:54:38;;;;;;;4.50;2.65;;;-6.50;80.00;-7.30;97852.00;;;;4927646;28;87269;-62
2022/01/02 04:57:23;;;;;;;4.70;2.33;;;-6.50;80.30;-7.40;97860.00;;;;4927803;28;88053;-61
2022/01/02 05:00:10;;;;;;;4.55;2.53;;;-6.50;80.20;-7.40;97863.00;;;;4933440;28;88671;-61
2022/01/02 05:02:55;;;;;;;3.88;2.25;;;-6.60;80.10;-7.40;97856.00;;;;4938507;28;87411;-61
2022/01/02 05:05:40;;;;;;;2.85;2.00;;;-6.60;79.80;-7.40;97881.00;;;;4920717;28;87392;-61
2022/01/02 05:08:25;;;;;;;4.00;1.70;;;-6.60;78.10;-7.50;97879.00;;;;4934246;28;88341;-62
2022/01/02 05:11:10;;;;;;;5.72;2.20;;;-6.60;77.60;-7.50;97851.00;;;;4920361;28;87863;-58
2022/01/02 05:13:55;;;;;;;4.05;1.92;;;-6.70;77.10;-7.50;97863.00;;;;4934604;28;87100;-58
2022/01/02 05:16:40;;;;;;;2.53;1.73;;;-6.60;77.00;-7.50;97868.00;;;;4923148;28;88016;-58
2022/01/02 05:19:25;;;;;;;3.70;1.83;;;-6.60;76.60;-7.50;97875.00;;;;4906590;28;88452;-61
2022/01/02 05:22:10;;;;;;;4.00;2.03;;;-6.60;76.60;-7.50;97870.00;;;;4926090;28;88298;-63
2022/01/02 05:24:55;;;;;;;3.40;2.10;;;-6.60;76.30;-7.50;97865.00;;;;4920695;28;87397;-64
2022/01/02 05:27:39;;;;;;;4.05;1.75;;;-6.60;76.40;-7.50;97869.00;;;;4919571;28;88284;-62
2022/01/02 05:30:25;;;;;;;4.28;1.80;;;-6.60;75.80;-7.50;97865.00;;;;4935018;28;87861;-64
2022/01/02 05:33:11;;;;;;;2.95;1.60;;;-6.60;75.30;-7.50;97865.00;;;;4928322;28;87512;-60
2022/01/02 05:35:56;;;;;;;3.85;1.65;;;-6.70;74.60;-7.50;97896.00;;;;4933991;28;86983;-60
2022/01/02 05:38:41;;;;;;;3.40;1.70;;;-6.60;73.50;-7.50;97892.00;;;;4926220;28;87971;-60
2022/01/02 05:41:28;;;;;;;3.13;2.17;;;-6.60;73.60;-7.50;97896.00;;;;4933846;28;88272;-62
2022/01/02 05:44:15;;;;;;;3.85;2.13;;;-6.70;73.00;-7.50;97896.00;;;;4912599;28;88006;-59
2022/01/02 05:47:00;;;;;;;2.90;2.05;;;-6.70;73.90;-7.50;97918.00;;;;4937677;28;86228;-60
2022/01/02 05:49:45;;;;;;;4.00;1.80;;;-6.60;74.50;-7.50;97915.00;;;;4925324;28;88031;-59
2022/01/02 05:52:31;;;;;;;3.83;1.85;;;-6.70;74.80;-7.50;97926.00;;;;4927570;28;87175;-57
2022/01/02 05:55:17;;;;;;;3.10;1.80;;;-6.70;75.20;-7.50;97931.00;;;;4922895;28;88400;-59
2022/01/02 05:58:02;;;;;;;3.38;1.80;;;-6.70;75.80;-7.50;97929.00;;;;4935172;28;87904;-59
2022/01/02 06:00:47;;;;;;;3.35;1.90;;;-6.60;76.00;-7.40;97933.00;;;;4939275;28;88111;-59
2022/01/02 06:03:32;;;;;;;3.92;2.22;;;-6.60;76.30;-7.50;97927.00;;;;4936229;28;88142;-59
2022/01/02 06:06:17;;;;;;;3.95;2.40;;;-6.60;76.60;-7.50;97942.00;;;;4925667;28;87384;-59
2022/01/02 06:09:02;;;;;;;4.05;1.77;;;-6.70;76.20;-7.60;97926.00;;;;4940581;28;88098;-58
2022/01/02 06:11:47;;;;;;;3.53;2.03;;;-6.80;75.70;-7.60;97952.00;;;;4923131;28;87768;-59
2022/01/02 06:14:35;;;;;;;2.83;1.85;;;-6.80;75.30;-7.70;97957.00;;;;4935998;28;87433;-60
2022/01/02 06:17:19;;;;;;;2.90;1.95;;;-6.90;75.00;-7.70;97952.00;;;;4940500;28;87928;-59
2022/01/02 06:20:06;;;;;;;3.00;1.85;;;-6.90;74.60;-7.70;97949.00;;;;4922630;28;88052;-60
2022/01/02 06:22:50;;;;;;;3.03;1.63;;;-6.90;74.70;-7.70;97955.00;;;;4929685;28;89627;-59
2022/01/02 06:25:35;;;;;;;2.78;1.70;;;-6.90;74.00;-7.80;97965.00;;;;4935488;28;88497;-57
2022/01/02 06:28:20;;;;;;;2.53;1.73;;;-6.90;73.70;-7.80;97968.00;;;;4936709;28;87812;-60
2022/01/02 06:31:04;;;;;;;5.65;2.17;;;-7.00;74.40;-7.80;97960.00;;;;4925309;28;88800;-62
2022/01/02 06:33:50;;;;;;;3.90;2.10;;;-7.00;74.10;-7.80;97956.00;;;;4922166;28;87799;-62
2022/01/02 06:36:34;;;;;;;3.22;1.98;;;-7.00;74.20;-7.80;97959.00;;;;4929092;28;88187;-62
2022/01/02 06:39:19;;;;;;;3.92;2.10;;;-7.00;74.20;-7.90;97941.00;;;;4939863;28;88170;-62
2022/01/02 06:42:05;;;;;;;4.95;1.88;;;-7.10;74.50;-7.90;97953.00;;;;4936214;28;86431;-62
2022/01/02 06:44:50;;;;;;;11.35;2.00;;;-7.00;75.40;-7.80;97954.00;;;;4935262;28;87674;-62
2022/01/02 06:47:35;;;;;;;5.18;2.10;;;-7.10;75.90;-7.90;97953.00;;;;4940169;28;87676;-61
2022/01/02 06:50:20;;;;;;;4.53;1.88;;;-7.10;76.30;-8.00;97953.00;;;;4927301;28;88730;-60
2022/01/02 06:53:05;;;;;;;3.70;1.70;;;-7.20;76.30;-8.00;97945.00;;;;4929026;28;87626;-61
2022/01/02 06:55:51;;;;;;;3.97;2.17;;;-7.20;77.00;-8.00;97963.00;;;;4922248;28;87539;-61
2022/01/02 06:58:38;;;;;;;3.70;2.08;;;-7.20;76.80;-8.00;97977.00;;;;4939965;28;87685;-62
2022/01/02 07:01:23;;;;;;;4.00;2.13;;;-7.20;76.80;-8.00;97964.00;;;;4928743;28;87112;-62
2022/01/02 07:04:09;;;;;;;6.70;1.98;;;-7.10;77.60;-7.90;97966.00;;;;4935201;28;87474;-62
2022/01/02 07:06:55;;;;;;;3.45;1.83;;;-7.10;77.10;-7.90;97967.00;;;;4936496;28;87487;-62
2022/01/02 07:09:40;;;;;;;3.15;2.08;;;-7.10;76.10;-7.80;97984.00;;;;4922385;28;87081;-61
2022/01/02 07:12:26;;;;;;;3.40;1.90;;;-7.10;76.60;-7.90;97969.00;;;;4938923;28;87052;-61
2022/01/02 07:15:11;;;;;;;3.00;1.67;;;-7.10;75.80;-7.80;98003.00;;;;4936475;28;87526;-61
2022/01/02 07:17:56;;;;;;;3.60;2.17;;;-7.00;75.90;-7.80;97973.00;;;;4938175;28;89128;-62
2022/01/02 07:20:44;;;;;;;3.85;1.90;;;-6.90;76.00;-7.70;97991.00;;;;4930815;28;87810;-62
2022/01/02 07:23:29;;;;;;;4.72;2.00;;;-6.90;76.00;-7.70;97998.00;;;;4936050;28;87394;-61
2022/01/02 07:26:14;;;;;;;3.45;2.10;;;-7.00;76.90;-7.80;98002.00;;;;4939654;28;88016;-61
2022/01/02 07:28:59;;;;;;;3.70;2.13;;;-7.00;77.70;-7.80;97991.00;;;;4938816;28;87394;-62
2022/01/02 07:31:43;;;;;;;4.65;2.22;;;-7.00;78.40;-7.90;98009.00;;;;4939003;28;87676;-62
2022/01/02 07:34:28;;;;;;;6.25;2.20;;;-7.10;78.50;-7.80;98001.00;;;;4939170;28;87624;-62
2022/01/02 07:37:13;;;;;;;5.10;2.13;;;-7.10;78.00;-7.80;98000.00;;;;4939856;28;86381;-61
2022/01/02 07:39:58;;;;;;;2.80;1.80;;;-7.00;77.80;-7.80;98008.00;;;;4938444;28;87764;-60
2022/01/02 07:42:42;;;;;;;4.25;2.00;;;-7.10;76.30;-7.80;97988.00;;;;4931888;28;88122;-61
2022/01/02 07:45:35;;;;;;;4.25;2.00;;;-7.00;75.90;-7.80;97999.00;;;;4934657;28;88639;-61
2022/01/02 07:48:19;;;;;;;3.45;1.80;;;-7.00;75.90;-7.70;98004.00;;;;4938228;28;87608;-60
2022/01/02 07:51:07;;;;;;;2.80;1.80;;;-6.90;76.00;-7.70;98013.00;;;;4938633;28;87385;-61
2022/01/02 07:53:52;;;;;;;2.70;1.92;;;-6.90;75.40;-7.70;98003.00;;;;4938999;28;87449;-62
2022/01/02 07:56:37;;;;;;;3.15;2.10;;;-7.00;75.60;-7.80;98016.00;;;;4938425;28;87109;-61
2022/01/02 07:59:22;;;;;;;2.90;2.00;;;-7.00;76.00;-7.70;98018.00;;;;4938571;28;87100;-61
2022/01/02 08:02:07;;;;;;;2.83;1.90;;;-7.00;76.20;-7.70;98038.00;;;;4938970;28;88088;-61
2022/01/02 08:04:52;;;;;;;5.32;2.25;;;-7.00;75.90;-7.70;98021.00;;;;4938383;28;86996;-62
2022/01/02 08:07:40;;;;;;;3.33;2.00;;;-6.90;76.70;-7.80;98023.00;;;;4937887;28;87023;-61
2022/01/02 08:10:27;;;;;;;3.65;1.88;;;-7.10;76.60;-7.90;98027.00;;;;4938874;28;87507;-61
2022/01/02 08:13:11;;;;;;;3.47;2.00;;;-7.10;76.90;-7.90;98006.00;;;;4938223;28;88382;-61
2022/01/02 08:15:56;;;;;;;3.45;2.00;;;-7.10;76.80;-7.90;98030.00;;;;4918342;28;87841;-61
2022/01/02 08:18:42;;;;;;;4.47;2.00;;;-7.10;75.90;-7.80;98032.00;;;;4938618;28;88072;-61
2022/01/02 08:21:27;;;;;;;4.63;2.25;;;-7.10;75.80;-7.90;98049.00;;;;4938816;28;87899;-61
2022/01/02 08:24:11;;;;;;;4.53;2.50;;;-7.10;75.90;-7.80;98039.00;;;;4936933;28;87221;-62
2022/01/02 08:26:56;;;;;;;5.57;3.53;;;-7.00;76.20;-7.80;98040.00;;;;4938211;28;87976;-62
2022/01/02 08:29:41;;;;;;;7.50;4.32;;;-7.00;75.90;-7.80;98040.00;;;;4930487;28;87104;-62
2022/01/02 08:32:25;;;;;;;7.85;5.13;;;-7.00;76.30;-7.70;98050.00;;;;4939091;28;86649;-62
2022/01/02 08:35:10;;;;;;;10.25;5.45;;;-6.90;76.90;-7.70;98038.00;;;;4938057;28;87124;-62
2022/01/02 08:37:55;;;;;;;11.10;5.45;;;-6.90;77.00;-7.70;98048.00;;;;4938587;28;87680;-61
2022/01/02 08:40:40;;;;;;;7.53;4.72;;;-6.90;76.90;-7.60;98029.00;;;;4934645;28;89288;-61
2022/01/02 08:43:25;;;;;;;9.20;4.45;;;-6.90;76.90;-7.50;98048.00;;;;4937576;28;87010;-61
2022/01/02 08:46:10;;;;;;;8.75;4.90;;;-6.80;77.10;-7.50;98051.00;;;;4937261;28;87238;-61
2022/01/02 08:48:55;;;;;;;10.27;4.35;;;-6.70;77.50;-7.50;98043.00;;;;4937498;28;87082;-61
2022/01/02 08:51:39;;;;;;;5.68;3.40;;;-6.70;78.00;-7.40;98039.00;;;;4937974;28;87470;-62
2022/01/02 08:54:24;;;;;;;5.47;3.50;;;-6.60;77.90;-7.40;98029.00;;;;4937573;28;87776;-62
2022/01/02 08:57:10;;;;;;;6.88;3.17;;;-6.60;78.40;-7.40;98050.00;;;;4938020;28;87168;-62
2022/01/02 08:59:54;;;;;;;10.98;3.67;;;-6.60;78.50;-7.40;98034.00;;;;4938691;28;88285;-61
2022/01/02 09:02:39;;;;;;;38.05;4.38;;;-6.60;78.80;-7.30;98043.00;;;;4937926;28;87991;-61
2022/01/02 09:05:26;;;;;;;5.70;3.47;;;-6.60;78.50;-7.30;98046.00;;;;4937394;28;88244;-61
2022/01/02 09:08:11;;;;;;;6.70;3.70;;;-6.60;78.50;-7.30;98034.00;;;;4937525;28;88728;-61
2022/01/02 09:10:56;;;;;;;6.60;3.75;;;-6.60;78.90;-7.40;98041.00;;;;4937449;28;88125;-62
2022/01/02 09:13:40;;;;;;;7.75;3.75;;;-6.60;78.60;-7.50;98040.00;;;;4937800;28;87850;-61
2022/01/02 09:16:25;;;;;;;4.72;3.10;;;-6.70;78.90;-7.40;98034.00;;;;4937532;28;87053;-62
2022/01/02 09:19:10;;;;;;;6.65;3.60;;;-6.70;79.30;-7.40;98029.00;;;;4937548;28;87317;-62
2022/01/02 09:21:55;;;;;;;8.25;3.58;;;-6.70;78.60;-7.30;98022.00;;;;4936643;28;87588;-62
2022/01/02 09:24:39;;;;;;;6.88;4.13;;;-6.60;78.20;-7.30;98022.00;;;;4937576;28;87113;-61
2022/01/02 09:27:24;;;;;;;8.88;4.47;;;-6.50;78.50;-7.20;98022.00;;;;4940094;28;87124;-61
2022/01/02 09:30:09;;;;;;;7.50;4.60;;;-6.50;77.60;-7.40;98023.00;;;;4940506;28;88097;-61
2022/01/02 09:32:55;;;;;;;7.28;5.00;;;-6.70;76.90;-7.40;98022.00;;;;4939981;28;88162;-61
2022/01/02 09:35:41;;;;;;;8.82;5.22;;;-6.70;76.80;-7.40;98010.00;;;;4940585;28;88169;-61
2022/01/02 09:38:26;;;;;;;8.82;4.90;;;-6.70;77.10;-7.50;98033.00;;;;4941142;28;87424;-61
2022/01/02 09:41:10;;;;;;;6.60;3.95;;;-6.80;76.70;-7.50;98003.00;;;;4940079;28;87907;-61
2022/01/02 09:43:55;;;;;;;9.35;4.03;;;-6.80;76.00;-7.50;98003.00;;;;4940417;28;87444;-62
2022/01/02 09:46:41;;;;;;;4.97;3.15;;;-6.70;76.20;-7.50;98014.00;;;;4940364;28;87852;-62
2022/01/02 09:49:27;;;;;;;4.18;3.08;;;-6.80;75.50;-7.50;98011.00;;;;4926271;28;87216;-60
2022/01/02 09:52:12;;;;;;;5.03;3.15;;;-6.80;75.10;-7.50;98017.00;;;;4940011;28;87089;-62
2022/01/02 09:54:44;;;;;;;4.35;2.45;;;-6.80;75.90;-7.60;97999.00;;;;4940543;28;87539;-60
2022/01/02 09:57:11;;;;;;;4.38;2.70;;;-6.80;75.50;-7.60;98012.00;;;;4923253;28;87065;-62
2022/01/02 09:59:38;;;;;;;6.28;2.80;;;-6.80;75.20;-7.60;98012.00;;;;4940186;28;87107;-62
2022/01/02 10:02:04;;;;;;;4.93;2.88;;;-6.80;75.80;-7.50;98032.00;;;;4938746;28;89783;-61
2022/01/02 10:04:34;;;;;;;3.70;2.40;;;-6.80;75.90;-7.50;98023.00;;;;4939772;28;88333;-61
2022/01/02 10:07:00;;;;;;;4.22;2.53;;;-6.80;75.50;-7.50;98035.00;;;;4940281;28;88183;-61
2022/01/02 10:09:37;;;;;;;5.65;3.38;;;-6.80;74.80;-7.50;98048.00;;;;4939933;28;87844;-62
2022/01/02 10:12:31;;;;;;;3.65;2.03;;;-6.80;74.90;-7.50;98049.00;;;;4940245;28;87423;-61
2022/01/02 10:15:16;;;;;;;3.88;2.30;;;-6.80;74.60;-7.50;98044.00;;;;4940078;28;87341;-61
2022/01/02 10:18:07;;;;;;;3.03;2.00;;;-6.70;74.80;-7.50;98045.00;;;;4939433;28;87012;-61
2022/01/02 10:20:48;;;;;;;3.10;2.00;;;-6.70;74.40;-7.60;98057.00;;;;4940188;28;86346;-61
2022/01/02 10:23:21;;;;;;;2.50;1.63;;;-6.80;74.00;-7.60;98063.00;;;;4939423;28;88889;-62
2022/01/02 10:25:57;;;;;;;3.75;2.22;;;-6.90;73.60;-7.60;98075.00;;;;4939328;28;88059;-62
2022/01/02 10:28:42;;;;;;;3.47;2.10;;;-6.80;74.30;-7.50;98051.00;;;;4939796;28;88434;-62
2022/01/02 10:31:15;;;;;;;3.63;2.35;;;-6.80;74.30;-7.60;98056.00;;;;4896147;28;87348;-62
2022/01/02 10:33:58;;;;;;;3.03;2.00;;;-6.80;73.50;-7.60;98051.00;;;;4920301;28;87681;-62
2022/01/02 10:36:45;;;;;;;2.72;1.92;;;-6.80;73.90;-7.60;98070.00;;;;4918446;28;88634;-62
2022/01/02 10:39:20;;;;;;;4.63;2.53;;;-6.80;74.20;-7.50;98061.00;;;;4919952;28;87436;-62
2022/01/02 10:41:49;;;;;;;4.47;2.20;;;-6.70;74.30;-7.50;98060.00;;;;4920606;28;87361;-63
2022/01/02 10:44:30;;;;;;;2.97;2.15;;;-6.70;74.10;-7.40;98071.00;;;;4919609;28;87736;-62
2022/01/02 10:47:18;;;;;;;2.97;2.15;;;-6.60;74.00;-7.50;98054.00;;;;4920229;28;87166;-62
2022/01/02 10:50:07;;;;;;;4.50;2.40;;;-6.70;73.70;-7.50;98076.00;;;;4920262;28;87937;-62
2022/01/02 10:52:39;;;;;;;2.75;2.30;;;-6.70;73.50;-7.50;98080.00;;;;4918158;28;87160;-61
2022/01/02 10:55:13;;;;;;;3.65;2.28;;;-6.70;74.00;-7.50;98080.00;;;;4918534;28;88655;-62
2022/01/02 10:57:43;;;;;;;4.13;2.80;;;-6.70;74.30;-7.50;98077.00;;;;4919886;28;90143;-61
2022/01/02 11:00:11;;;;;;;3.70;2.10;;;-6.70;74.30;-7.50;98079.00;;;;4919889;28;88138;-60
2022/01/02 11:02:39;;;;;;;3.90;2.10;;;-6.70;74.40;-7.50;98096.00;;;;4919536;28;87125;-62
2022/01/02 11:05:12;;;;;;;2.60;2.15;;;-6.80;74.20;-7.60;98099.00;;;;4918426;28;88095;-61
2022/01/02 11:07:44;;;;;;;3.80;2.10;;;-6.80;73.80;-7.60;98100.00;;;;4920051;28;87916;-61
2022/01/02 11:10:23;;;;;;;4.40;2.33;;;-6.80;74.30;-7.60;98108.00;;;;4919764;28;87514;-62
2022/01/02 11:12:52;;;;;;;5.13;2.72;;;-6.80;74.60;-7.50;98086.00;;;;4920324;28;86263;-61
2022/01/02 11:15:27;;;;;;;3.95;2.10;;;-6.80;74.70;-7.60;98099.00;;;;4918895;28;88053;-61
2022/01/02 11:17:54;;;;;;;2.90;1.90;;;-6.80;74.60;-7.60;98091.00;;;;4920001;28;88743;-61
2022/01/02 11:20:31;;;;;;;8.23;1.92;;;-6.80;74.30;-7.60;98122.00;;;;4919313;28;88020;-61
2022/01/02 11:23:21;;;;;;;5.35;2.15;;;-6.80;74.10;-7.60;98096.00;;;;4919485;28;87981;-61
2022/01/02 11:26:18;;;;;;;4.30;2.17;;;-6.80;74.20;-7.60;98099.00;;;;4918204;28;88617;-61
2022/01/02 11:28:49;;;;;;;3.33;2.05;;;-6.90;74.60;-7.60;98100.00;;;;4894835;28;88004;-62
2022/01/02 11:31:34;;;;;;;4.07;2.30;;;-6.80;74.60;-7.60;98097.00;;;;4935216;28;87456;-63
2022/01/02 11:34:02;;;;;;;4.40;2.83;;;-6.80;74.60;-7.70;98077.00;;;;4939029;28;88017;-62
2022/01/02 11:36:32;;;;;;;5.63;2.85;;;-6.80;74.80;-7.70;98088.00;;;;4905750;28;87393;-63
2022/01/02 11:39:07;;;;;;;3.97;2.72;;;-6.90;75.20;-7.60;98075.00;;;;4938771;28;88513;-63
2022/01/02 11:41:44;;;;;;;4.38;2.90;;;-6.80;75.70;-7.60;98073.00;;;;4920864;28;87564;-62
2022/01/02 11:44:23;;;;;;;3.63;2.10;;;-6.80;76.60;-7.60;98068.00;;;;4938701;28;86993;-62
2022/01/02 11:46:55;;;;;;;3.08;2.50;;;-6.80;75.20;-7.60;98065.00;;;;4921109;28;90872;-63
2022/01/02 11:49:37;;;;;;;2.83;2.22;;;-6.80;75.40;-7.70;98074.00;;;;4920476;28;88283;-62
2022/01/02 11:52:19;;;;;;;5.80;2.45;;;-6.80;75.60;-7.70;98088.00;;;;4938243;28;87047;-61
2022/01/02 11:54:49;;;;;;;3.60;2.25;;;-6.90;74.90;-7.70;98089.00;;;;4937922;28;87051;-62
2022/01/02 11:57:15;;;;;;;3.95;2.30;;;-6.90;75.00;-7.70;98104.00;;;;4938168;28;87724;-62
2022/01/02 11:59:44;;;;;;;3.95;2.22;;;-6.90;75.40;-7.70;98105.00;;;;4938201;28;88755;-62
2022/01/02 12:02:13;;;;;;;3.17;2.35;;;-6.90;75.40;-7.70;98100.00;;;;4938419;28;87621;-64
2022/01/02 12:05:02;;;;;;;5.00;3.20;;;-6.90;75.80;-7.70;98100.00;;;;4938633;28;86605;-61
2022/01/02 12:07:37;;;;;;;2.78;1.92;;;-6.90;76.00;-7.70;98102.00;;;;4938223;28;87705;-61
2022/01/02 12:10:21;;;;;;;2.70;2.08;;;-6.90;74.30;-7.70;98106.00;;;;4937762;28;87317;-61
2022/01/02 12:13:06;;;;;;;5.05;2.25;;;-6.90;74.70;-7.70;98120.00;;;;4936166;28;88470;-62